createdAt,value
2018-07-27T00:00:44.405Z,21.89
2018-07-27T00:03:12.634Z,21.82
2018-07-27T00:05:40.857Z,21.81
2018-07-27T00:08:09.081Z,21.94
2018-07-27T00:10:37.304Z,21.93
2018-07-27T00:13:05.543Z,21.83
2018-07-27T00:15:33.758Z,21.83
2018-07-27T00:18:01.963Z,21.73
2018-07-27T00:20:30.186Z,21.86
2018-07-27T00:22:58.454Z,21.70
2018-07-27T00:25:26.738Z,21.59
2018-07-27T00:27:55.009Z,21.60
2018-07-27T00:30:23.257Z,21.49
2018-07-27T00:32:51.453Z,21.50
2018-07-27T00:35:19.661Z,21.38
2018-07-27T00:37:47.864Z,21.32
2018-07-27T00:40:16.061Z,21.30
2018-07-27T00:42:44.262Z,21.35
2018-07-27T00:45:12.462Z,21.44
2018-07-27T00:47:40.722Z,21.72
2018-07-27T00:50:08.949Z,21.73
2018-07-27T00:52:37.218Z,21.67
2018-07-27T00:55:05.426Z,21.48
2018-07-27T00:57:33.618Z,21.39
2018-07-27T01:00:01.834Z,21.26
2018-07-27T01:02:30.022Z,21.09
2018-07-27T01:04:58.218Z,21.12
2018-07-27T01:07:26.434Z,21.19
2018-07-27T01:09:54.946Z,21.16
2018-07-27T01:12:23.146Z,21.11
2018-07-27T01:14:51.358Z,20.99
2018-07-27T01:17:19.557Z,20.97
2018-07-27T01:19:47.776Z,20.93
2018-07-27T01:22:15.969Z,21.02
2018-07-27T01:24:44.194Z,21.12
2018-07-27T01:27:12.374Z,21.10
2018-07-27T01:29:40.573Z,21.04
2018-07-27T01:32:08.786Z,20.99
2018-07-27T01:34:36.984Z,20.86
2018-07-27T01:37:05.290Z,20.83
2018-07-27T01:39:33.503Z,20.83
2018-07-27T01:42:01.734Z,20.82
2018-07-27T01:44:29.950Z,20.80
2018-07-27T01:46:58.174Z,20.83
2018-07-27T01:49:26.384Z,20.91
2018-07-27T01:51:54.562Z,20.86
2018-07-27T01:54:22.775Z,20.72
2018-07-27T01:56:50.969Z,20.83
2018-07-27T01:59:19.178Z,20.78
2018-07-27T02:01:47.373Z,20.76
2018-07-27T02:04:15.594Z,20.82
2018-07-27T02:06:43.785Z,20.92
2018-07-27T02:09:11.978Z,20.99
2018-07-27T02:11:40.178Z,21.03
2018-07-27T02:14:08.369Z,21.00
2018-07-27T02:16:36.565Z,20.94
2018-07-27T02:19:04.794Z,20.87
2018-07-27T02:21:33.022Z,20.83
2018-07-27T02:24:01.239Z,20.75
2018-07-27T02:26:29.437Z,20.69
2018-07-27T02:28:57.638Z,20.63
2018-07-27T02:31:25.854Z,20.66
2018-07-27T02:33:54.095Z,20.53
2018-07-27T02:36:22.260Z,20.48
2018-07-27T02:38:50.458Z,20.45
2018-07-27T02:41:18.655Z,20.62
2018-07-27T02:43:46.868Z,20.69
2018-07-27T02:46:15.949Z,20.72
2018-07-27T02:48:44.194Z,20.75
2018-07-27T02:51:12.389Z,20.80
2018-07-27T02:53:41.386Z,20.77
2018-07-27T02:56:09.608Z,20.74
2018-07-27T02:58:37.816Z,20.72
2018-07-27T03:01:06.330Z,20.75
2018-07-27T03:03:34.538Z,20.82
2018-07-27T03:06:02.751Z,20.77
2018-07-27T03:08:30.965Z,20.79
2018-07-27T03:10:59.200Z,20.75
2018-07-27T03:13:27.415Z,20.77
2018-07-27T03:15:55.621Z,20.71
2018-07-27T03:18:23.821Z,20.71
2018-07-27T03:20:52.063Z,20.69
2018-07-27T03:23:20.261Z,20.68
2018-07-27T03:25:48.470Z,20.64
2018-07-27T03:28:16.689Z,20.69
2018-07-27T03:30:44.895Z,20.55
2018-07-27T03:33:13.108Z,20.46
2018-07-27T03:35:41.310Z,20.54
2018-07-27T03:38:09.544Z,20.41
2018-07-27T03:40:37.718Z,20.26
2018-07-27T03:43:05.957Z,20.11
2018-07-27T03:45:34.234Z,20.09
2018-07-27T03:48:06.591Z,20.21
2018-07-27T03:50:34.801Z,20.16
2018-07-27T03:53:03.126Z,20.02
2018-07-27T03:55:31.379Z,19.95
2018-07-27T03:57:59.623Z,19.97
2018-07-27T04:00:27.830Z,19.98
2018-07-27T04:02:56.102Z,20.03
2018-07-27T04:05:24.297Z,19.98
2018-07-27T04:07:52.482Z,19.87
2018-07-27T04:10:20.882Z,19.87
2018-07-27T04:12:49.074Z,19.86
2018-07-27T04:15:17.294Z,19.82
2018-07-27T04:17:50.664Z,19.85
2018-07-27T04:20:18.866Z,19.92
2018-07-27T04:22:47.178Z,20.00
2018-07-27T04:25:15.378Z,20.05
2018-07-27T04:27:43.600Z,20.10
2018-07-27T04:30:11.819Z,20.23
2018-07-27T04:32:40.038Z,20.46
2018-07-27T04:35:08.241Z,20.60
2018-07-27T04:37:36.447Z,20.61
2018-07-27T04:40:04.678Z,20.62
2018-07-27T04:42:32.874Z,20.63
2018-07-27T04:45:01.087Z,20.66
2018-07-27T04:47:29.285Z,20.68
2018-07-27T04:49:57.522Z,20.68
2018-07-27T04:52:25.845Z,20.63
2018-07-27T04:54:54.048Z,20.72
2018-07-27T04:57:22.306Z,20.67
2018-07-27T04:59:50.502Z,20.81
2018-07-27T05:02:18.697Z,20.90
2018-07-27T05:04:46.978Z,20.97
2018-07-27T05:07:15.120Z,21.04
2018-07-27T05:09:43.330Z,21.07
2018-07-27T05:12:11.533Z,21.00
2018-07-27T05:14:39.737Z,21.13
2018-07-27T05:17:07.939Z,21.29
2018-07-27T05:19:36.138Z,21.25
2018-07-27T05:22:04.359Z,21.38
2018-07-27T05:24:32.608Z,21.35
2018-07-27T05:27:00.770Z,21.34
2018-07-27T05:29:28.978Z,21.46
2018-07-27T05:31:57.198Z,21.42
2018-07-27T05:34:25.513Z,21.41
2018-07-27T05:39:20.894Z,21.60
2018-07-27T05:41:49.099Z,21.76
2018-07-27T05:44:17.319Z,21.84
2018-07-27T05:46:45.625Z,21.99
2018-07-27T05:49:13.790Z,22.19
2018-07-27T05:51:42.290Z,22.33
2018-07-27T05:54:10.534Z,22.39
2018-07-27T05:56:38.734Z,22.45
2018-07-27T05:59:06.974Z,22.48
2018-07-27T06:01:35.194Z,22.28
2018-07-27T06:04:03.431Z,22.38
2018-07-27T06:06:31.659Z,22.45
2018-07-27T06:08:59.898Z,22.57
2018-07-27T06:11:28.150Z,22.61
2018-07-27T06:13:56.366Z,22.47
2018-07-27T06:16:24.578Z,22.67
2018-07-27T06:18:52.801Z,22.82
2018-07-27T06:21:20.998Z,22.86
2018-07-27T06:23:49.265Z,22.85
2018-07-27T06:26:17.494Z,22.94
2018-07-27T06:28:45.702Z,23.01
2018-07-27T06:31:13.918Z,23.22
2018-07-27T06:33:42.118Z,23.22
2018-07-27T06:36:10.350Z,23.29
2018-07-27T06:38:38.553Z,23.23
2018-07-27T06:41:06.881Z,23.30
2018-07-27T06:43:35.102Z,23.34
2018-07-27T06:46:03.355Z,23.45
2018-07-27T06:48:31.558Z,23.50
2018-07-27T06:50:59.774Z,23.59
2018-07-27T06:53:27.981Z,23.64
2018-07-27T06:55:56.191Z,23.63
2018-07-27T06:58:24.455Z,23.75
2018-07-27T07:00:52.710Z,23.83
2018-07-27T07:03:20.967Z,23.96
2018-07-27T07:05:49.541Z,24.08
2018-07-27T07:08:17.741Z,24.14
2018-07-27T07:10:45.962Z,24.19
2018-07-27T07:13:14.178Z,24.17
2018-07-27T07:15:42.390Z,24.44
2018-07-27T07:18:10.589Z,24.51
2018-07-27T07:20:38.825Z,24.55
2018-07-27T07:23:07.030Z,24.70
2018-07-27T07:25:35.379Z,24.74
2018-07-27T07:28:03.470Z,24.80
2018-07-27T07:30:31.684Z,24.86
2018-07-27T07:32:59.904Z,24.98
2018-07-27T07:35:28.116Z,24.89
2018-07-27T07:37:56.598Z,25.07
2018-07-27T07:40:24.816Z,25.23
2018-07-27T07:42:53.042Z,25.32
2018-07-27T07:45:21.249Z,25.38
2018-07-27T07:47:49.443Z,25.49
2018-07-27T07:50:17.653Z,25.38
2018-07-27T07:52:45.862Z,25.51
2018-07-27T07:55:14.061Z,25.65
2018-07-27T07:57:42.275Z,25.66
2018-07-27T08:00:10.514Z,25.78
2018-07-27T08:02:38.717Z,25.90
2018-07-27T08:05:07.086Z,26.09
2018-07-27T08:07:37.614Z,26.17
2018-07-27T08:10:06.125Z,26.30
2018-07-27T08:12:34.490Z,26.52
2018-07-27T08:15:02.750Z,26.56
2018-07-27T08:17:31.066Z,26.72
2018-07-27T08:19:59.289Z,26.76
2018-07-27T08:22:27.517Z,26.84
2018-07-27T08:24:55.733Z,27.04
2018-07-27T08:27:23.962Z,26.77
2018-07-27T08:29:52.162Z,26.83
2018-07-27T08:32:20.482Z,27.11
2018-07-27T08:34:48.762Z,27.04
2018-07-27T08:37:17.073Z,27.24
2018-07-27T08:39:45.379Z,27.31
2018-07-27T08:42:13.577Z,27.62
2018-07-27T08:44:42.694Z,27.36
2018-07-27T08:47:10.939Z,27.74
2018-07-27T08:49:39.177Z,27.84
2018-07-27T08:52:07.385Z,27.88
2018-07-27T08:54:35.583Z,27.86
2018-07-27T08:57:03.850Z,27.85
2018-07-27T08:59:32.111Z,27.71
2018-07-27T09:02:00.362Z,27.81
2018-07-27T09:04:28.613Z,28.11
2018-07-27T09:06:56.814Z,28.21
2018-07-27T09:09:25.058Z,28.19
2018-07-27T09:11:53.292Z,28.35
2018-07-27T09:14:21.834Z,28.42
2018-07-27T09:16:50.130Z,28.53
2018-07-27T09:19:18.898Z,28.72
2018-07-27T09:21:47.114Z,28.70
2018-07-27T09:24:15.439Z,28.80
2018-07-27T09:26:43.540Z,28.93
2018-07-27T09:29:11.745Z,28.78
2018-07-27T09:31:39.982Z,28.87
2018-07-27T09:34:08.274Z,29.03
2018-07-27T09:36:36.464Z,29.30
2018-07-27T09:39:07.866Z,29.51
2018-07-27T09:41:36.146Z,29.60
2018-07-27T09:44:04.399Z,29.41
2018-07-27T09:46:32.642Z,29.08
2018-07-27T09:49:00.801Z,29.59
2018-07-27T09:51:29.052Z,29.79
2018-07-27T09:53:57.320Z,29.62
2018-07-27T09:56:25.541Z,29.70
2018-07-27T09:58:53.782Z,29.99
2018-07-27T10:01:22.729Z,29.99
2018-07-27T10:03:51.474Z,30.10
2018-07-27T10:06:19.679Z,30.28
2018-07-27T10:08:47.938Z,30.37
2018-07-27T10:11:16.138Z,30.42
2018-07-27T10:13:44.386Z,30.62
2018-07-27T10:16:12.609Z,30.50
2018-07-27T10:18:40.813Z,30.71
2018-07-27T10:21:09.314Z,30.48
2018-07-27T10:23:37.611Z,30.59
2018-07-27T10:26:05.992Z,30.57
2018-07-27T10:28:34.183Z,30.67
2018-07-27T10:31:02.452Z,30.68
2018-07-27T10:33:30.702Z,30.75
2018-07-27T10:35:58.905Z,30.75
2018-07-27T10:38:27.110Z,30.45
2018-07-27T10:40:55.301Z,30.64
2018-07-27T10:43:23.494Z,31.02
2018-07-27T10:45:51.706Z,31.27
2018-07-27T10:48:19.975Z,31.07
2018-07-27T10:50:48.209Z,31.24
2018-07-27T10:53:16.470Z,31.08
2018-07-27T10:55:44.667Z,31.28
2018-07-27T10:58:12.891Z,31.48
2018-07-27T11:00:41.093Z,31.76
2018-07-27T11:03:09.319Z,31.71
2018-07-27T11:05:37.514Z,31.45
2018-07-27T11:08:05.702Z,31.68
2018-07-27T11:10:34.713Z,31.48
2018-07-27T11:13:02.901Z,31.53
2018-07-27T11:15:31.123Z,31.47
2018-07-27T11:17:59.330Z,31.53
2018-07-27T11:20:27.533Z,31.47
2018-07-27T11:22:55.761Z,31.46
2018-07-27T11:25:23.989Z,31.26
2018-07-27T11:27:52.246Z,30.83
2018-07-27T11:30:20.482Z,31.03
2018-07-27T11:32:48.689Z,31.20
2018-07-27T11:35:16.956Z,31.25
2018-07-27T11:37:45.175Z,31.07
2018-07-27T11:40:13.499Z,31.32
2018-07-27T11:42:41.719Z,31.25
2018-07-27T11:45:09.912Z,31.43
2018-07-27T11:47:38.131Z,31.43
2018-07-27T11:50:06.662Z,31.45
2018-07-27T11:52:34.910Z,31.42
2018-07-27T11:55:03.138Z,31.29
2018-07-27T11:57:31.334Z,31.56
2018-07-27T11:59:59.549Z,31.08
2018-07-27T12:02:27.802Z,30.88
2018-07-27T12:04:56.022Z,31.18
2018-07-27T12:07:24.223Z,31.14
2018-07-27T12:09:52.463Z,31.47
2018-07-27T12:12:20.674Z,31.34
2018-07-27T12:14:49.044Z,31.30
2018-07-27T12:17:17.197Z,31.35
2018-07-27T12:19:45.398Z,31.49
2018-07-27T12:22:13.603Z,31.38
2018-07-27T12:24:41.806Z,31.63
2018-07-27T12:27:10.188Z,31.76
2018-07-27T12:29:38.355Z,31.66
2018-07-27T12:32:06.579Z,31.65
2018-07-27T12:34:34.801Z,31.63
2018-07-27T12:37:03.002Z,31.57
2018-07-27T12:39:31.198Z,31.21
2018-07-27T12:41:59.406Z,31.58
2018-07-27T12:44:27.613Z,31.40
2018-07-27T12:46:55.814Z,31.35
2018-07-27T12:49:24.025Z,31.21
2018-07-27T12:52:23.182Z,31.36
2018-07-27T12:54:51.395Z,31.34
2018-07-27T12:57:20.634Z,31.20
2018-07-27T12:59:48.839Z,30.92
2018-07-27T13:02:17.045Z,31.25
2018-07-27T13:04:45.266Z,31.35
2018-07-27T13:07:13.477Z,31.08
2018-07-27T13:09:41.711Z,31.15
2018-07-27T13:12:09.946Z,31.09
2018-07-27T13:14:38.135Z,30.94
2018-07-27T13:17:06.338Z,31.13
2018-07-27T13:19:34.542Z,31.21
2018-07-27T13:22:02.737Z,31.30
2018-07-27T13:24:56.842Z,31.04
2018-07-27T13:26:59.150Z,30.82
2018-07-27T13:29:27.417Z,30.74
2018-07-27T13:31:56.767Z,30.50
2018-07-27T13:34:35.230Z,30.96
2018-07-27T13:37:03.466Z,30.98
2018-07-27T13:39:32.217Z,31.29
2018-07-27T13:42:01.491Z,31.56
2018-07-27T13:44:30.397Z,31.56
2018-07-27T13:46:58.595Z,31.65
2018-07-27T13:49:27.490Z,31.69
2018-07-27T13:51:55.790Z,31.79
2018-07-27T13:54:23.995Z,31.88
2018-07-27T13:56:52.205Z,31.86
2018-07-27T13:59:20.394Z,31.76
2018-07-27T14:01:49.550Z,31.86
2018-07-27T14:04:17.958Z,31.75
2018-07-27T14:06:47.953Z,31.90
2018-07-27T14:09:16.174Z,32.01
2018-07-27T14:11:44.446Z,31.80
2018-07-27T14:14:12.957Z,32.10
2018-07-27T14:16:41.721Z,31.98
2018-07-27T14:19:10.122Z,31.96
2018-07-27T14:21:38.394Z,32.16
2018-07-27T14:24:06.534Z,32.59
2018-07-27T14:26:34.746Z,32.36
2018-07-27T14:29:02.938Z,32.74
2018-07-27T14:31:31.135Z,32.90
2018-07-27T14:33:59.338Z,32.59
2018-07-27T14:36:27.590Z,32.54
2018-07-27T14:38:55.819Z,32.93
2018-07-27T14:41:24.150Z,33.21
2018-07-27T14:43:52.699Z,32.91
2018-07-27T14:46:20.956Z,33.25
2018-07-27T14:48:49.162Z,32.89
2018-07-27T14:51:17.580Z,32.39
2018-07-27T14:53:46.234Z,32.07
2018-07-27T14:56:14.462Z,32.14
2018-07-27T14:58:43.710Z,31.85
2018-07-27T15:01:11.858Z,31.75
2018-07-27T15:03:40.058Z,31.56
2018-07-27T15:06:08.258Z,31.16
2018-07-27T15:08:36.466Z,31.05
2018-07-27T15:11:04.681Z,30.81
2018-07-27T15:13:32.862Z,30.75
2018-07-27T15:16:01.062Z,31.12
2018-07-27T15:18:29.257Z,31.92
2018-07-27T15:20:57.486Z,31.97
2018-07-27T15:23:25.690Z,32.45
2018-07-27T15:25:53.886Z,32.90
2018-07-27T15:28:22.090Z,33.18
2018-07-27T15:30:50.319Z,33.25
2018-07-27T15:33:18.562Z,32.61
2018-07-27T15:35:46.774Z,33.38
2018-07-27T15:38:14.970Z,33.45
2018-07-27T15:40:43.229Z,33.29
2018-07-27T15:43:11.424Z,33.35
2018-07-27T15:45:39.641Z,33.68
2018-07-27T15:48:07.907Z,33.75
2018-07-27T15:50:36.145Z,33.77
2018-07-27T15:53:04.381Z,33.88
2018-07-27T15:55:32.756Z,33.61
2018-07-27T15:58:00.942Z,33.79
2018-07-27T16:00:29.161Z,33.12
2018-07-27T16:02:57.387Z,34.18
2018-07-27T16:05:25.600Z,34.78
2018-07-27T16:07:53.806Z,35.43
2018-07-27T16:10:22.006Z,36.59
2018-07-27T16:12:50.222Z,37.06
2018-07-27T16:15:18.446Z,36.89
2018-07-27T16:17:46.646Z,37.02
2018-07-27T16:20:14.847Z,35.91
2018-07-27T16:22:43.050Z,36.82
2018-07-27T16:25:11.265Z,35.48
2018-07-27T16:27:39.502Z,35.62
2018-07-27T16:30:07.740Z,36.09
2018-07-27T16:32:35.934Z,35.47
2018-07-27T16:35:04.133Z,35.01
2018-07-27T16:37:32.336Z,35.31
2018-07-27T16:40:00.541Z,34.99
2018-07-27T16:42:28.812Z,34.86
2018-07-27T16:44:57.005Z,34.50
2018-07-27T16:47:25.237Z,34.06
2018-07-27T16:49:53.429Z,34.07
2018-07-27T16:52:21.626Z,34.01
2018-07-27T16:54:49.861Z,34.66
2018-07-27T16:57:18.053Z,34.38
2018-07-27T16:59:46.311Z,34.54
2018-07-27T17:02:14.462Z,33.63
2018-07-27T17:04:42.653Z,34.62
2018-07-27T17:07:10.854Z,34.29
2018-07-27T17:09:39.041Z,33.98
2018-07-27T17:12:07.332Z,33.30
2018-07-27T17:14:35.526Z,32.79
2018-07-27T17:17:03.774Z,33.11
2018-07-27T17:19:31.978Z,32.40
2018-07-27T17:22:00.235Z,32.14
2018-07-27T17:24:28.606Z,31.54
2018-07-27T17:26:56.802Z,30.87
2018-07-27T17:29:25.016Z,30.70
2018-07-27T17:31:53.217Z,30.61
2018-07-27T17:34:21.444Z,30.27
2018-07-27T17:36:49.640Z,30.10
2018-07-27T17:39:17.843Z,30.10
2018-07-27T17:41:46.033Z,30.10
2018-07-27T17:44:14.258Z,30.01
2018-07-27T17:46:42.446Z,29.99
2018-07-27T17:49:10.662Z,30.00
2018-07-27T17:51:39.170Z,29.94
2018-07-27T17:54:08.286Z,29.83
2018-07-27T17:56:36.478Z,29.66
2018-07-27T17:59:05.026Z,29.57
2018-07-27T18:01:33.249Z,29.41
2018-07-27T18:04:01.422Z,29.36
2018-07-27T18:06:29.626Z,29.27
2018-07-27T18:08:57.833Z,29.19
2018-07-27T18:11:26.035Z,29.11
2018-07-27T18:13:54.235Z,28.99
2018-07-27T18:16:22.422Z,28.88
2018-07-27T18:18:50.606Z,28.76
2018-07-27T18:21:18.802Z,28.61
2018-07-27T18:23:47.000Z,28.55
2018-07-27T18:26:15.205Z,28.51
2018-07-27T18:28:43.397Z,28.40
2018-07-27T18:31:11.594Z,28.31
2018-07-27T18:33:39.809Z,28.28
2018-07-27T18:36:08.265Z,28.27
2018-07-27T18:38:36.482Z,28.26
2018-07-27T18:41:04.686Z,28.39
2018-07-27T18:43:32.869Z,28.51
2018-07-27T18:46:01.080Z,28.54
2018-07-27T18:48:29.286Z,28.46
2018-07-27T18:50:57.531Z,28.50
2018-07-27T18:53:25.737Z,28.48
2018-07-27T18:55:53.933Z,28.45
2018-07-27T18:58:22.138Z,28.26
2018-07-27T19:00:50.338Z,28.34
2018-07-27T19:03:18.549Z,28.21
2018-07-27T19:05:46.729Z,28.18
2018-07-27T19:08:15.034Z,28.14
2018-07-27T19:10:43.234Z,28.11
2018-07-27T19:13:11.430Z,27.99
2018-07-27T19:15:39.626Z,27.87
2018-07-27T19:18:07.818Z,27.83
2018-07-27T19:20:36.037Z,27.74
2018-07-27T19:23:04.238Z,27.70
2018-07-27T19:25:32.418Z,27.72
2018-07-27T19:28:00.625Z,27.68
2018-07-27T19:30:28.850Z,27.61
2018-07-27T19:32:57.050Z,27.61
2018-07-27T19:35:25.254Z,27.43
2018-07-27T19:37:53.442Z,27.21
2018-07-27T19:40:21.692Z,27.21
2018-07-27T19:42:49.870Z,27.23
2018-07-27T19:45:18.103Z,27.12
2018-07-27T19:47:46.346Z,27.02
2018-07-27T19:50:14.531Z,26.92
2018-07-27T19:52:42.738Z,26.90
2018-07-27T19:55:11.009Z,26.94
2018-07-27T19:57:39.214Z,26.83
2018-07-27T20:00:08.054Z,26.78
2018-07-27T20:02:36.242Z,26.55
2018-07-27T20:05:04.519Z,26.56
2018-07-27T20:07:32.754Z,26.42
2018-07-27T20:10:01.014Z,26.26
2018-07-27T20:12:29.239Z,26.28
2018-07-27T20:14:57.438Z,26.24
2018-07-27T20:17:25.687Z,26.19
2018-07-27T20:19:53.886Z,26.32
2018-07-27T20:22:22.099Z,26.27
2018-07-27T20:24:50.314Z,26.24
2018-07-27T20:27:18.501Z,26.30
2018-07-27T20:29:46.738Z,26.26
2018-07-27T20:32:15.042Z,26.26
2018-07-27T20:34:43.254Z,26.26
2018-07-27T20:37:11.478Z,26.24
2018-07-27T20:39:39.678Z,26.17
2018-07-27T20:42:07.967Z,26.09
2018-07-27T20:44:36.158Z,26.13
2018-07-27T20:47:04.390Z,26.09
2018-07-27T20:49:36.255Z,25.96
2018-07-27T20:52:04.478Z,26.03
2018-07-27T20:54:32.720Z,26.02
2018-07-27T20:57:00.950Z,26.02
2018-07-27T20:59:29.139Z,25.95
2018-07-27T21:01:57.382Z,25.89
2018-07-27T21:04:25.641Z,25.84
2018-07-27T21:06:53.870Z,25.72
2018-07-27T21:09:22.083Z,25.64
2018-07-27T21:11:50.289Z,25.67
2018-07-27T21:14:18.522Z,25.66
2018-07-27T21:16:46.718Z,25.62
2018-07-27T21:19:14.946Z,25.56
2018-07-27T21:21:43.224Z,25.50
2018-07-27T21:24:11.358Z,25.44
2018-07-27T21:26:39.602Z,25.36
2018-07-27T21:29:07.802Z,25.23
2018-07-27T21:31:36.026Z,25.35
2018-07-27T21:34:04.225Z,25.24
2018-07-27T21:36:32.567Z,25.19
2018-07-27T21:39:00.733Z,25.33
2018-07-27T21:41:28.937Z,25.35
2018-07-27T21:43:57.886Z,25.31
2018-07-27T21:46:26.079Z,25.32
2018-07-27T21:48:54.530Z,25.23
2018-07-27T21:51:22.742Z,25.21
2018-07-27T21:53:51.038Z,25.16
2018-07-27T21:56:19.258Z,25.16
2018-07-27T21:58:47.490Z,25.12
2018-07-27T22:01:15.934Z,25.14
2018-07-27T22:03:44.171Z,25.12
2018-07-27T22:06:12.401Z,25.12
2018-07-27T22:08:40.649Z,25.11
2018-07-27T22:11:08.915Z,25.09
2018-07-27T22:13:37.142Z,25.14
2018-07-27T22:16:05.350Z,25.07
2018-07-27T22:18:33.551Z,24.99
2018-07-27T22:21:01.798Z,25.08
2018-07-27T22:23:30.007Z,25.04
2018-07-27T22:25:58.210Z,25.02
2018-07-27T22:28:26.413Z,24.67
2018-07-27T22:30:54.670Z,24.69
2018-07-27T22:33:22.886Z,24.71
2018-07-27T22:35:51.082Z,24.66
2018-07-27T22:38:19.301Z,24.73
2018-07-27T22:40:47.540Z,24.73
2018-07-27T22:43:15.739Z,24.82
2018-07-27T22:45:43.954Z,24.71
2018-07-27T22:48:12.193Z,24.70
2018-07-27T22:50:40.430Z,24.74
2018-07-27T22:53:08.646Z,24.83
2018-07-27T22:55:36.846Z,24.54
2018-07-27T22:58:05.411Z,24.46
2018-07-27T23:00:33.622Z,24.33
2018-07-27T23:03:01.856Z,24.28
2018-07-27T23:05:30.086Z,24.32
2018-07-27T23:07:58.351Z,24.32
2018-07-27T23:10:26.586Z,24.30
2018-07-27T23:12:54.798Z,24.19
2018-07-27T23:15:23.037Z,24.08
2018-07-27T23:17:51.238Z,23.99
2018-07-27T23:20:19.445Z,23.97
2018-07-27T23:22:47.642Z,23.92
2018-07-27T23:25:15.857Z,23.90
2018-07-27T23:27:44.073Z,23.84
2018-07-27T23:30:13.270Z,23.88
2018-07-27T23:32:41.822Z,23.77
2018-07-27T23:35:10.026Z,23.76
2018-07-27T23:37:38.367Z,23.85
2018-07-27T23:40:07.197Z,23.82
2018-07-27T23:42:35.414Z,23.72
2018-07-27T23:45:03.666Z,23.58
2018-07-27T23:47:31.877Z,23.58
2018-07-27T23:50:00.075Z,23.55
2018-07-27T23:52:28.306Z,23.59
2018-07-27T23:54:56.522Z,23.55
2018-07-27T23:57:24.754Z,23.52
2018-07-27T23:59:52.969Z,23.54
